sensor_id;sensor_type;location;lat;lon;timestamp;P1;durP1;ratioP1;P2;durP2;ratioP2
27303;SDS011;14791;52.392;13.092;2023-08-06T00:00:52;3.15;;;3.00;;
27303;SDS011;14791;52.392;13.092;2023-08-06T00:03:21;2.95;;;2.85;;
27303;SDS011;14791;52.392;13.092;2023-08-06T00:05:50;2.92;;;2.83;;
27303;SDS011;14791;52.392;13.092;2023-08-06T00:08:19;3.20;;;3.10;;
27303;SDS011;14791;52.392;13.092;2023-08-06T00:10:48;2.85;;;2.75;;
27303;SDS011;14791;52.392;13.092;2023-08-06T00:13:17;3.50;;;3.30;;
27303;SDS011;14791;52.392;13.092;2023-08-06T00:15:46;3.22;;;3.12;;
27303;SDS011;14791;52.392;13.092;2023-08-06T00:18:15;3.08;;;2.98;;
27303;SDS011;14791;52.392;13.092;2023-08-06T00:20:44;3.45;;;3.30;;
27303;SDS011;14791;52.392;13.092;2023-08-06T00:23:12;3.20;;;3.10;;
27303;SDS011;14791;52.392;13.092;2023-08-06T00:25:41;3.00;;;2.90;;
27303;SDS011;14791;52.392;13.092;2023-08-06T00:28:10;3.58;;;3.47;;
27303;SDS011;14791;52.392;13.092;2023-08-06T00:30:39;3.47;;;3.27;;
27303;SDS011;14791;52.392;13.092;2023-08-06T00:33:08;3.35;;;3.25;;
27303;SDS011;14791;52.392;13.092;2023-08-06T00:35:38;3.17;;;2.98;;
27303;SDS011;14791;52.392;13.092;2023-08-06T00:38:07;2.92;;;2.83;;
27303;SDS011;14791;52.392;13.092;2023-08-06T00:40:36;3.17;;;3.08;;
27303;SDS011;14791;52.392;13.092;2023-08-06T00:43:04;3.27;;;3.00;;
27303;SDS011;14791;52.392;13.092;2023-08-06T00:45:35;3.20;;;3.10;;
27303;SDS011;14791;52.392;13.092;2023-08-06T00:48:05;3.45;;;3.35;;
27303;SDS011;14791;52.392;13.092;2023-08-06T00:50:34;3.10;;;3.00;;
27303;SDS011;14791;52.392;13.092;2023-08-06T00:53:03;3.50;;;3.40;;
27303;SDS011;14791;52.392;13.092;2023-08-06T00:55:32;3.37;;;3.27;;
27303;SDS011;14791;52.392;13.092;2023-08-06T00:58:01;3.40;;;3.30;;
27303;SDS011;14791;52.392;13.092;2023-08-06T01:00:31;3.20;;;3.10;;
27303;SDS011;14791;52.392;13.092;2023-08-06T01:03:00;3.25;;;3.15;;
27303;SDS011;14791;52.392;13.092;2023-08-06T01:05:29;3.15;;;3.05;;
27303;SDS011;14791;52.392;13.092;2023-08-06T01:11:11;3.50;;;3.40;;
27303;SDS011;14791;52.392;13.092;2023-08-06T01:13:59;3.20;;;3.10;;
27303;SDS011;14791;52.392;13.092;2023-08-06T01:16:29;3.62;;;3.52;;
27303;SDS011;14791;52.392;13.092;2023-08-06T01:18:58;3.35;;;3.25;;
27303;SDS011;14791;52.392;13.092;2023-08-06T01:21:27;3.08;;;2.90;;
27303;SDS011;14791;52.392;13.092;2023-08-06T01:23:56;3.72;;;3.62;;
27303;SDS011;14791;52.392;13.092;2023-08-06T01:26:37;3.67;;;3.58;;
27303;SDS011;14791;52.392;13.092;2023-08-06T01:29:07;3.20;;;3.10;;
27303;SDS011;14791;52.392;13.092;2023-08-06T01:31:38;3.33;;;3.22;;
27303;SDS011;14791;52.392;13.092;2023-08-06T01:34:10;3.35;;;3.25;;
27303;SDS011;14791;52.392;13.092;2023-08-06T01:36:42;3.50;;;3.40;;
27303;SDS011;14791;52.392;13.092;2023-08-06T01:39:11;3.72;;;3.55;;
27303;SDS011;14791;52.392;13.092;2023-08-06T01:41:40;3.47;;;3.30;;
27303;SDS011;14791;52.392;13.092;2023-08-06T01:44:10;3.30;;;3.20;;
27303;SDS011;14791;52.392;13.092;2023-08-06T01:46:38;4.20;;;3.98;;
27303;SDS011;14791;52.392;13.092;2023-08-06T01:49:07;3.95;;;3.85;;
27303;SDS011;14791;52.392;13.092;2023-08-06T01:51:36;3.60;;;3.50;;
27303;SDS011;14791;52.392;13.092;2023-08-06T01:54:05;3.35;;;3.25;;
27303;SDS011;14791;52.392;13.092;2023-08-06T01:56:34;4.33;;;4.20;;
27303;SDS011;14791;52.392;13.092;2023-08-06T01:59:03;4.10;;;3.92;;
27303;SDS011;14791;52.392;13.092;2023-08-06T02:01:32;3.85;;;3.75;;
27303;SDS011;14791;52.392;13.092;2023-08-06T02:04:01;3.58;;;3.47;;
27303;SDS011;14791;52.392;13.092;2023-08-06T02:06:30;3.10;;;3.00;;
27303;SDS011;14791;52.392;13.092;2023-08-06T02:08:59;3.67;;;3.58;;
27303;SDS011;14791;52.392;13.092;2023-08-06T02:11:27;3.33;;;3.22;;
27303;SDS011;14791;52.392;13.092;2023-08-06T02:13:56;3.42;;;3.33;;
27303;SDS011;14791;52.392;13.092;2023-08-06T02:16:25;3.15;;;3.05;;
27303;SDS011;14791;52.392;13.092;2023-08-06T02:18:54;3.30;;;3.20;;
27303;SDS011;14791;52.392;13.092;2023-08-06T02:21:24;3.25;;;3.15;;
27303;SDS011;14791;52.392;13.092;2023-08-06T02:23:54;3.50;;;3.40;;
27303;SDS011;14791;52.392;13.092;2023-08-06T02:26:23;3.55;;;3.45;;
27303;SDS011;14791;52.392;13.092;2023-08-06T02:28:52;3.10;;;3.00;;
27303;SDS011;14791;52.392;13.092;2023-08-06T02:31:21;3.62;;;3.52;;
27303;SDS011;14791;52.392;13.092;2023-08-06T02:33:50;3.52;;;3.42;;
27303;SDS011;14791;52.392;13.092;2023-08-06T02:36:20;3.45;;;3.35;;
27303;SDS011;14791;52.392;13.092;2023-08-06T02:38:50;3.52;;;3.33;;
27303;SDS011;14791;52.392;13.092;2023-08-06T02:41:19;3.15;;;3.08;;
27303;SDS011;14791;52.392;13.092;2023-08-06T02:43:48;3.25;;;3.15;;
27303;SDS011;14791;52.392;13.092;2023-08-06T02:46:17;3.40;;;3.30;;
27303;SDS011;14791;52.392;13.092;2023-08-06T02:48:47;3.25;;;3.12;;
27303;SDS011;14791;52.392;13.092;2023-08-06T02:51:16;3.83;;;3.52;;
27303;SDS011;14791;52.392;13.092;2023-08-06T02:53:47;3.60;;;3.50;;
27303;SDS011;14791;52.392;13.092;2023-08-06T02:56:16;3.55;;;3.45;;
27303;SDS011;14791;52.392;13.092;2023-08-06T02:58:50;3.30;;;3.12;;
27303;SDS011;14791;52.392;13.092;2023-08-06T03:01:23;3.10;;;3.00;;
27303;SDS011;14791;52.392;13.092;2023-08-06T03:03:55;2.80;;;2.77;;
27303;SDS011;14791;52.392;13.092;2023-08-06T03:06:26;3.42;;;3.33;;
27303;SDS011;14791;52.392;13.092;2023-08-06T03:08:56;3.27;;;3.17;;
27303;SDS011;14791;52.392;13.092;2023-08-06T03:11:25;2.83;;;2.83;;
27303;SDS011;14791;52.392;13.092;2023-08-06T03:13:56;3.22;;;3.12;;
27303;SDS011;14791;52.392;13.092;2023-08-06T03:16:25;3.75;;;3.58;;
27303;SDS011;14791;52.392;13.092;2023-08-06T03:18:54;3.60;;;3.50;;
27303;SDS011;14791;52.392;13.092;2023-08-06T03:21:23;3.58;;;3.40;;
27303;SDS011;14791;52.392;13.092;2023-08-06T03:23:52;3.92;;;3.83;;
27303;SDS011;14791;52.392;13.092;2023-08-06T03:26:23;3.72;;;3.62;;
27303;SDS011;14791;52.392;13.092;2023-08-06T03:28:52;3.52;;;3.42;;
27303;SDS011;14791;52.392;13.092;2023-08-06T03:31:22;3.72;;;3.62;;
27303;SDS011;14791;52.392;13.092;2023-08-06T03:33:51;3.22;;;3.12;;
27303;SDS011;14791;52.392;13.092;2023-08-06T03:36:21;3.60;;;3.50;;
27303;SDS011;14791;52.392;13.092;2023-08-06T03:38:51;3.65;;;3.55;;
27303;SDS011;14791;52.392;13.092;2023-08-06T03:41:19;3.70;;;3.60;;
27303;SDS011;14791;52.392;13.092;2023-08-06T03:43:49;3.67;;;3.58;;
27303;SDS011;14791;52.392;13.092;2023-08-06T03:46:19;3.45;;;3.35;;
27303;SDS011;14791;52.392;13.092;2023-08-06T03:48:49;3.52;;;3.42;;
27303;SDS011;14791;52.392;13.092;2023-08-06T03:51:17;3.62;;;3.52;;
27303;SDS011;14791;52.392;13.092;2023-08-06T03:53:46;3.52;;;3.42;;
27303;SDS011;14791;52.392;13.092;2023-08-06T03:56:15;3.55;;;3.45;;
27303;SDS011;14791;52.392;13.092;2023-08-06T03:58:44;4.00;;;3.85;;
27303;SDS011;14791;52.392;13.092;2023-08-06T04:01:13;3.40;;;3.30;;
27303;SDS011;14791;52.392;13.092;2023-08-06T04:03:46;3.30;;;3.20;;
27303;SDS011;14791;52.392;13.092;2023-08-06T04:06:15;3.47;;;3.37;;
27303;SDS011;14791;52.392;13.092;2023-08-06T04:08:44;3.10;;;3.00;;
27303;SDS011;14791;52.392;13.092;2023-08-06T04:11:12;3.40;;;3.30;;
27303;SDS011;14791;52.392;13.092;2023-08-06T04:13:42;3.42;;;3.33;;
27303;SDS011;14791;52.392;13.092;2023-08-06T04:16:11;3.47;;;3.37;;
27303;SDS011;14791;52.392;13.092;2023-08-06T04:18:41;3.72;;;3.52;;
27303;SDS011;14791;52.392;13.092;2023-08-06T04:21:10;3.42;;;3.33;;
27303;SDS011;14791;52.392;13.092;2023-08-06T04:23:40;3.27;;;3.17;;
27303;SDS011;14791;52.392;13.092;2023-08-06T04:26:09;3.15;;;3.05;;
27303;SDS011;14791;52.392;13.092;2023-08-06T04:28:38;3.40;;;3.30;;
27303;SDS011;14791;52.392;13.092;2023-08-06T04:31:08;3.33;;;3.22;;
27303;SDS011;14791;52.392;13.092;2023-08-06T04:33:39;3.27;;;3.17;;
27303;SDS011;14791;52.392;13.092;2023-08-06T04:36:09;3.20;;;3.10;;
27303;SDS011;14791;52.392;13.092;2023-08-06T04:38:39;3.15;;;3.08;;
27303;SDS011;14791;52.392;13.092;2023-08-06T04:41:10;3.30;;;3.20;;
27303;SDS011;14791;52.392;13.092;2023-08-06T04:43:39;2.87;;;2.87;;
27303;SDS011;14791;52.392;13.092;2023-08-06T04:46:09;3.10;;;3.00;;
27303;SDS011;14791;52.392;13.092;2023-08-06T04:48:38;3.10;;;3.00;;
27303;SDS011;14791;52.392;13.092;2023-08-06T04:51:07;2.77;;;2.67;;
27303;SDS011;14791;52.392;13.092;2023-08-06T04:53:36;2.98;;;2.87;;
27303;SDS011;14791;52.392;13.092;2023-08-06T04:56:05;2.87;;;2.87;;
27303;SDS011;14791;52.392;13.092;2023-08-06T04:58:34;3.10;;;3.00;;
27303;SDS011;14791;52.392;13.092;2023-08-06T05:01:02;3.02;;;2.92;;
27303;SDS011;14791;52.392;13.092;2023-08-06T05:03:31;3.00;;;2.90;;
27303;SDS011;14791;52.392;13.092;2023-08-06T05:06:00;3.00;;;2.90;;
27303;SDS011;14791;52.392;13.092;2023-08-06T05:08:29;2.72;;;2.72;;
27303;SDS011;14791;52.392;13.092;2023-08-06T05:10:58;2.62;;;2.52;;
27303;SDS011;14791;52.392;13.092;2023-08-06T05:13:27;3.30;;;3.20;;
27303;SDS011;14791;52.392;13.092;2023-08-06T05:15:56;3.10;;;3.00;;
27303;SDS011;14791;52.392;13.092;2023-08-06T05:18:25;3.02;;;2.92;;
27303;SDS011;14791;52.392;13.092;2023-08-06T05:20:54;2.80;;;2.70;;
27303;SDS011;14791;52.392;13.092;2023-08-06T05:23:23;2.87;;;2.77;;
27303;SDS011;14791;52.392;13.092;2023-08-06T05:25:52;2.70;;;2.60;;
27303;SDS011;14791;52.392;13.092;2023-08-06T05:28:21;2.60;;;2.52;;
27303;SDS011;14791;52.392;13.092;2023-08-06T05:30:50;3.10;;;2.90;;
27303;SDS011;14791;52.392;13.092;2023-08-06T05:33:19;2.98;;;2.87;;
27303;SDS011;14791;52.392;13.092;2023-08-06T05:35:49;3.42;;;3.27;;
27303;SDS011;14791;52.392;13.092;2023-08-06T05:38:18;3.70;;;3.60;;
27303;SDS011;14791;52.392;13.092;2023-08-06T05:40:46;3.52;;;3.42;;
27303;SDS011;14791;52.392;13.092;2023-08-06T05:43:16;3.65;;;3.55;;
27303;SDS011;14791;52.392;13.092;2023-08-06T05:45:45;3.90;;;3.80;;
27303;SDS011;14791;52.392;13.092;2023-08-06T05:48:14;4.20;;;4.10;;
27303;SDS011;14791;52.392;13.092;2023-08-06T05:50:43;4.20;;;4.00;;
27303;SDS011;14791;52.392;13.092;2023-08-06T05:53:12;4.08;;;3.98;;
27303;SDS011;14791;52.392;13.092;2023-08-06T05:55:41;3.92;;;3.80;;
27303;SDS011;14791;52.392;13.092;2023-08-06T05:58:11;4.22;;;4.12;;
27303;SDS011;14791;52.392;13.092;2023-08-06T06:00:40;3.98;;;3.77;;
27303;SDS011;14791;52.392;13.092;2023-08-06T06:03:08;4.00;;;3.90;;
27303;SDS011;14791;52.392;13.092;2023-08-06T06:05:38;3.70;;;3.60;;
27303;SDS011;14791;52.392;13.092;2023-08-06T06:08:07;3.30;;;3.22;;
27303;SDS011;14791;52.392;13.092;2023-08-06T06:10:36;3.75;;;3.65;;
27303;SDS011;14791;52.392;13.092;2023-08-06T06:13:04;3.15;;;3.00;;
27303;SDS011;14791;52.392;13.092;2023-08-06T06:15:33;3.40;;;3.30;;
27303;SDS011;14791;52.392;13.092;2023-08-06T06:18:02;3.30;;;3.20;;
27303;SDS011;14791;52.392;13.092;2023-08-06T06:20:32;3.35;;;3.15;;
27303;SDS011;14791;52.392;13.092;2023-08-06T06:23:01;3.40;;;3.30;;
27303;SDS011;14791;52.392;13.092;2023-08-06T06:25:30;2.92;;;2.92;;
27303;SDS011;14791;52.392;13.092;2023-08-06T06:27:58;3.00;;;2.90;;
27303;SDS011;14791;52.392;13.092;2023-08-06T06:30:27;3.10;;;3.00;;
27303;SDS011;14791;52.392;13.092;2023-08-06T06:32:56;3.40;;;3.30;;
27303;SDS011;14791;52.392;13.092;2023-08-06T06:35:25;3.50;;;3.40;;
27303;SDS011;14791;52.392;13.092;2023-08-06T06:37:54;2.95;;;2.95;;
27303;SDS011;14791;52.392;13.092;2023-08-06T06:40:23;3.15;;;3.05;;
27303;SDS011;14791;52.392;13.092;2023-08-06T06:42:52;2.87;;;2.77;;
27303;SDS011;14791;52.392;13.092;2023-08-06T06:45:21;2.83;;;2.75;;
27303;SDS011;14791;52.392;13.092;2023-08-06T06:47:50;2.98;;;2.95;;
27303;SDS011;14791;52.392;13.092;2023-08-06T06:50:19;2.95;;;2.85;;
27303;SDS011;14791;52.392;13.092;2023-08-06T06:52:48;3.22;;;3.12;;
27303;SDS011;14791;52.392;13.092;2023-08-06T06:55:16;3.30;;;3.20;;
27303;SDS011;14791;52.392;13.092;2023-08-06T06:57:45;3.05;;;2.98;;
27303;SDS011;14791;52.392;13.092;2023-08-06T07:00:14;3.20;;;3.10;;
27303;SDS011;14791;52.392;13.092;2023-08-06T07:02:43;2.90;;;2.90;;
27303;SDS011;14791;52.392;13.092;2023-08-06T07:05:12;2.80;;;2.80;;
27303;SDS011;14791;52.392;13.092;2023-08-06T07:07:41;3.27;;;3.17;;
27303;SDS011;14791;52.392;13.092;2023-08-06T07:10:09;3.20;;;3.10;;
27303;SDS011;14791;52.392;13.092;2023-08-06T07:12:38;3.08;;;2.98;;
27303;SDS011;14791;52.392;13.092;2023-08-06T07:15:08;3.37;;;3.27;;
27303;SDS011;14791;52.392;13.092;2023-08-06T07:17:37;3.90;;;3.70;;
27303;SDS011;14791;52.392;13.092;2023-08-06T07:20:06;3.45;;;3.35;;
27303;SDS011;14791;52.392;13.092;2023-08-06T07:22:36;4.17;;;4.08;;
27303;SDS011;14791;52.392;13.092;2023-08-06T07:25:05;3.62;;;3.52;;
27303;SDS011;14791;52.392;13.092;2023-08-06T07:27:34;3.62;;;3.52;;
27303;SDS011;14791;52.392;13.092;2023-08-06T07:30:04;3.40;;;3.30;;
27303;SDS011;14791;52.392;13.092;2023-08-06T07:32:33;3.98;;;3.87;;
27303;SDS011;14791;52.392;13.092;2023-08-06T07:35:02;3.87;;;3.77;;
27303;SDS011;14791;52.392;13.092;2023-08-06T07:37:31;4.03;;;3.92;;
27303;SDS011;14791;52.392;13.092;2023-08-06T07:40:00;4.30;;;4.10;;
27303;SDS011;14791;52.392;13.092;2023-08-06T07:42:29;4.47;;;4.37;;
27303;SDS011;14791;52.392;13.092;2023-08-06T07:44:58;4.58;;;4.40;;
27303;SDS011;14791;52.392;13.092;2023-08-06T07:47:27;3.92;;;3.83;;
27303;SDS011;14791;52.392;13.092;2023-08-06T07:49:56;4.17;;;4.08;;
27303;SDS011;14791;52.392;13.092;2023-08-06T07:52:25;4.62;;;4.53;;
27303;SDS011;14791;52.392;13.092;2023-08-06T07:54:54;4.37;;;4.17;;
27303;SDS011;14791;52.392;13.092;2023-08-06T07:57:23;4.30;;;4.20;;
27303;SDS011;14791;52.392;13.092;2023-08-06T07:59:52;4.28;;;4.17;;
27303;SDS011;14791;52.392;13.092;2023-08-06T08:02:21;4.50;;;4.40;;
27303;SDS011;14791;52.392;13.092;2023-08-06T08:04:49;4.58;;;4.37;;
27303;SDS011;14791;52.392;13.092;2023-08-06T08:07:18;3.80;;;3.70;;
27303;SDS011;14791;52.392;13.092;2023-08-06T08:09:48;4.72;;;4.62;;
27303;SDS011;14791;52.392;13.092;2023-08-06T08:12:17;4.28;;;4.17;;
27303;SDS011;14791;52.392;13.092;2023-08-06T08:14:46;3.87;;;3.77;;
27303;SDS011;14791;52.392;13.092;2023-08-06T08:17:15;3.87;;;3.77;;
27303;SDS011;14791;52.392;13.092;2023-08-06T08:19:43;3.95;;;3.83;;
27303;SDS011;14791;52.392;13.092;2023-08-06T08:22:12;4.22;;;4.12;;
27303;SDS011;14791;52.392;13.092;2023-08-06T08:24:41;4.28;;;4.17;;
27303;SDS011;14791;52.392;13.092;2023-08-06T08:27:10;4.65;;;4.55;;
27303;SDS011;14791;52.392;13.092;2023-08-06T08:29:39;4.47;;;4.37;;
27303;SDS011;14791;52.392;13.092;2023-08-06T08:32:08;4.30;;;4.20;;
27303;SDS011;14791;52.392;13.092;2023-08-06T08:34:37;4.60;;;4.50;;
27303;SDS011;14791;52.392;13.092;2023-08-06T08:37:06;4.35;;;4.25;;
27303;SDS011;14791;52.392;13.092;2023-08-06T08:39:35;4.20;;;4.10;;
27303;SDS011;14791;52.392;13.092;2023-08-06T08:42:05;4.90;;;4.80;;
27303;SDS011;14791;52.392;13.092;2023-08-06T08:44:34;4.35;;;4.25;;
27303;SDS011;14791;52.392;13.092;2023-08-06T08:47:12;4.87;;;4.78;;
27303;SDS011;14791;52.392;13.092;2023-08-06T08:49:37;4.80;;;4.70;;
27303;SDS011;14791;52.392;13.092;2023-08-06T08:52:06;4.17;;;4.08;;
27303;SDS011;14791;52.392;13.092;2023-08-06T08:54:37;4.53;;;4.42;;
27303;SDS011;14791;52.392;13.092;2023-08-06T08:57:07;3.90;;;3.80;;
27303;SDS011;14791;52.392;13.092;2023-08-06T08:59:36;3.92;;;3.83;;
27303;SDS011;14791;52.392;13.092;2023-08-06T09:02:05;3.45;;;3.35;;
27303;SDS011;14791;52.392;13.092;2023-08-06T09:04:37;3.17;;;3.12;;
27303;SDS011;14791;52.392;13.092;2023-08-06T09:07:08;3.58;;;3.47;;
27303;SDS011;14791;52.392;13.092;2023-08-06T09:09:40;4.12;;;4.03;;
27303;SDS011;14791;52.392;13.092;2023-08-06T09:12:12;3.77;;;3.67;;
27303;SDS011;14791;52.392;13.092;2023-08-06T09:14:49;3.72;;;3.62;;
27303;SDS011;14791;52.392;13.092;2023-08-06T09:17:20;4.05;;;3.95;;
27303;SDS011;14791;52.392;13.092;2023-08-06T09:19:48;3.72;;;3.62;;
27303;SDS011;14791;52.392;13.092;2023-08-06T09:22:17;3.72;;;3.62;;
27303;SDS011;14791;52.392;13.092;2023-08-06T09:24:46;4.40;;;4.22;;
27303;SDS011;14791;52.392;13.092;2023-08-06T09:27:15;3.90;;;3.80;;
27303;SDS011;14791;52.392;13.092;2023-08-06T09:29:45;3.60;;;3.50;;
27303;SDS011;14791;52.392;13.092;2023-08-06T09:32:14;4.08;;;3.98;;
27303;SDS011;14791;52.392;13.092;2023-08-06T09:34:43;3.17;;;3.08;;
27303;SDS011;14791;52.392;13.092;2023-08-06T09:37:14;2.40;;;2.40;;
27303;SDS011;14791;52.392;13.092;2023-08-06T09:39:42;2.42;;;2.42;;
27303;SDS011;14791;52.392;13.092;2023-08-06T09:42:14;2.42;;;2.42;;
27303;SDS011;14791;52.392;13.092;2023-08-06T09:44:42;2.47;;;2.47;;
27303;SDS011;14791;52.392;13.092;2023-08-06T09:47:11;2.75;;;2.72;;
27303;SDS011;14791;52.392;13.092;2023-08-06T09:49:42;2.62;;;2.62;;
27303;SDS011;14791;52.392;13.092;2023-08-06T09:52:12;2.60;;;2.60;;
27303;SDS011;14791;52.392;13.092;2023-08-06T09:54:43;3.05;;;2.95;;
27303;SDS011;14791;52.392;13.092;2023-08-06T09:57:12;2.70;;;2.70;;
27303;SDS011;14791;52.392;13.092;2023-08-06T09:59:43;2.92;;;2.92;;
27303;SDS011;14791;52.392;13.092;2023-08-06T10:02:14;3.20;;;3.10;;
27303;SDS011;14791;52.392;13.092;2023-08-06T10:04:44;2.87;;;2.85;;
27303;SDS011;14791;52.392;13.092;2023-08-06T10:07:13;3.02;;;2.83;;
27303;SDS011;14791;52.392;13.092;2023-08-06T10:09:44;2.75;;;2.75;;
27303;SDS011;14791;52.392;13.092;2023-08-06T10:12:13;2.60;;;2.60;;
27303;SDS011;14791;52.392;13.092;2023-08-06T10:14:45;2.77;;;2.67;;
27303;SDS011;14791;52.392;13.092;2023-08-06T10:17:16;2.58;;;2.47;;
27303;SDS011;14791;52.392;13.092;2023-08-06T10:19:45;2.70;;;2.70;;
27303;SDS011;14791;52.392;13.092;2023-08-06T10:22:16;2.45;;;2.45;;
27303;SDS011;14791;52.392;13.092;2023-08-06T10:24:49;2.30;;;2.30;;
27303;SDS011;14791;52.392;13.092;2023-08-06T10:27:19;2.22;;;2.22;;
27303;SDS011;14791;52.392;13.092;2023-08-06T10:29:52;2.20;;;2.20;;
27303;SDS011;14791;52.392;13.092;2023-08-06T10:32:21;2.50;;;2.50;;
27303;SDS011;14791;52.392;13.092;2023-08-06T10:37:34;2.17;;;2.17;;
27303;SDS011;14791;52.392;13.092;2023-08-06T10:40:06;2.22;;;2.22;;
27303;SDS011;14791;52.392;13.092;2023-08-06T10:42:35;2.40;;;2.30;;
27303;SDS011;14791;52.392;13.092;2023-08-06T10:45:19;2.60;;;2.60;;
27303;SDS011;14791;52.392;13.092;2023-08-06T10:47:50;2.87;;;2.77;;
27303;SDS011;14791;52.392;13.092;2023-08-06T10:50:19;2.60;;;2.50;;
27303;SDS011;14791;52.392;13.092;2023-08-06T10:52:48;2.83;;;2.83;;
27303;SDS011;14791;52.392;13.092;2023-08-06T10:55:24;2.30;;;2.30;;
27303;SDS011;14791;52.392;13.092;2023-08-06T10:57:55;2.65;;;2.62;;
27303;SDS011;14791;52.392;13.092;2023-08-06T11:00:26;2.47;;;2.47;;
27303;SDS011;14791;52.392;13.092;2023-08-06T11:02:55;2.45;;;2.35;;
27303;SDS011;14791;52.392;13.092;2023-08-06T11:05:24;2.58;;;2.58;;
27303;SDS011;14791;52.392;13.092;2023-08-06T11:07:53;2.90;;;2.80;;
27303;SDS011;14791;52.392;13.092;2023-08-06T11:10:21;2.52;;;2.50;;
27303;SDS011;14791;52.392;13.092;2023-08-06T11:12:51;2.30;;;2.30;;
27303;SDS011;14791;52.392;13.092;2023-08-06T11:15:20;2.65;;;2.65;;
27303;SDS011;14791;52.392;13.092;2023-08-06T11:17:49;2.90;;;2.80;;
27303;SDS011;14791;52.392;13.092;2023-08-06T11:20:19;2.47;;;2.40;;
27303;SDS011;14791;52.392;13.092;2023-08-06T11:22:49;2.25;;;2.25;;
27303;SDS011;14791;52.392;13.092;2023-08-06T11:25:20;2.22;;;2.22;;
27303;SDS011;14791;52.392;13.092;2023-08-06T11:27:49;2.15;;;2.05;;
27303;SDS011;14791;52.392;13.092;2023-08-06T11:30:18;2.40;;;2.40;;
27303;SDS011;14791;52.392;13.092;2023-08-06T11:32:47;2.40;;;2.40;;
27303;SDS011;14791;52.392;13.092;2023-08-06T11:35:17;2.17;;;2.17;;
27303;SDS011;14791;52.392;13.092;2023-08-06T11:37:46;2.05;;;2.05;;
27303;SDS011;14791;52.392;13.092;2023-08-06T11:40:15;1.92;;;1.92;;
27303;SDS011;14791;52.392;13.092;2023-08-06T11:42:46;2.20;;;2.20;;
27303;SDS011;14791;52.392;13.092;2023-08-06T11:45:15;2.15;;;2.15;;
27303;SDS011;14791;52.392;13.092;2023-08-06T11:47:49;1.92;;;1.92;;
27303;SDS011;14791;52.392;13.092;2023-08-06T11:50:25;3.10;;;3.00;;
27303;SDS011;14791;52.392;13.092;2023-08-06T11:52:58;2.27;;;2.25;;
27303;SDS011;14791;52.392;13.092;2023-08-06T11:55:28;2.52;;;2.42;;
27303;SDS011;14791;52.392;13.092;2023-08-06T11:57:57;2.37;;;2.37;;
27303;SDS011;14791;52.392;13.092;2023-08-06T12:00:28;2.62;;;2.62;;
27303;SDS011;14791;52.392;13.092;2023-08-06T12:02:57;2.67;;;2.58;;
27303;SDS011;14791;52.392;13.092;2023-08-06T12:05:30;2.70;;;2.70;;
27303;SDS011;14791;52.392;13.092;2023-08-06T12:08:04;2.65;;;2.65;;
27303;SDS011;14791;52.392;13.092;2023-08-06T12:10:33;2.65;;;2.62;;
27303;SDS011;14791;52.392;13.092;2023-08-06T12:13:02;2.72;;;2.72;;
27303;SDS011;14791;52.392;13.092;2023-08-06T12:15:31;2.80;;;2.70;;
27303;SDS011;14791;52.392;13.092;2023-08-06T12:18:00;2.92;;;2.83;;
27303;SDS011;14791;52.392;13.092;2023-08-06T12:20:29;2.60;;;2.60;;
27303;SDS011;14791;52.392;13.092;2023-08-06T12:22:58;2.70;;;2.62;;
27303;SDS011;14791;52.392;13.092;2023-08-06T12:25:27;2.85;;;2.75;;
27303;SDS011;14791;52.392;13.092;2023-08-06T12:27:56;2.62;;;2.52;;
27303;SDS011;14791;52.392;13.092;2023-08-06T12:30:25;2.92;;;2.87;;
27303;SDS011;14791;52.392;13.092;2023-08-06T12:32:53;2.75;;;2.75;;
27303;SDS011;14791;52.392;13.092;2023-08-06T12:35:22;3.15;;;3.10;;
27303;SDS011;14791;52.392;13.092;2023-08-06T12:37:52;3.10;;;3.00;;
27303;SDS011;14791;52.392;13.092;2023-08-06T12:40:24;2.95;;;2.87;;
27303;SDS011;14791;52.392;13.092;2023-08-06T12:42:53;2.72;;;2.72;;
27303;SDS011;14791;52.392;13.092;2023-08-06T12:45:22;2.95;;;2.85;;
27303;SDS011;14791;52.392;13.092;2023-08-06T12:47:51;2.92;;;2.83;;
27303;SDS011;14791;52.392;13.092;2023-08-06T12:50:20;2.95;;;2.85;;
27303;SDS011;14791;52.392;13.092;2023-08-06T12:52:49;3.15;;;2.75;;
27303;SDS011;14791;52.392;13.092;2023-08-06T12:55:18;2.70;;;2.70;;
27303;SDS011;14791;52.392;13.092;2023-08-06T12:57:47;2.72;;;2.62;;
27303;SDS011;14791;52.392;13.092;2023-08-06T13:00:16;2.87;;;2.80;;
27303;SDS011;14791;52.392;13.092;2023-08-06T13:02:45;2.60;;;2.60;;
27303;SDS011;14791;52.392;13.092;2023-08-06T13:05:14;3.00;;;2.90;;
27303;SDS011;14791;52.392;13.092;2023-08-06T13:07:43;2.58;;;2.47;;
27303;SDS011;14791;52.392;13.092;2023-08-06T13:10:11;3.25;;;3.15;;
27303;SDS011;14791;52.392;13.092;2023-08-06T13:12:40;3.22;;;3.12;;
27303;SDS011;14791;52.392;13.092;2023-08-06T13:15:09;2.62;;;2.62;;
27303;SDS011;14791;52.392;13.092;2023-08-06T13:17:39;3.00;;;2.90;;
27303;SDS011;14791;52.392;13.092;2023-08-06T13:20:08;2.37;;;2.37;;
27303;SDS011;14791;52.392;13.092;2023-08-06T13:22:37;2.98;;;2.87;;
27303;SDS011;14791;52.392;13.092;2023-08-06T13:25:06;2.92;;;2.83;;
27303;SDS011;14791;52.392;13.092;2023-08-06T13:27:35;3.12;;;2.92;;
27303;SDS011;14791;52.392;13.092;2023-08-06T13:30:04;3.17;;;3.08;;
27303;SDS011;14791;52.392;13.092;2023-08-06T13:32:34;3.17;;;3.17;;
27303;SDS011;14791;52.392;13.092;2023-08-06T13:35:04;2.98;;;2.90;;
27303;SDS011;14791;52.392;13.092;2023-08-06T13:37:33;2.50;;;2.50;;
27303;SDS011;14791;52.392;13.092;2023-08-06T13:40:02;2.85;;;2.75;;
27303;SDS011;14791;52.392;13.092;2023-08-06T13:42:31;2.85;;;2.85;;
27303;SDS011;14791;52.392;13.092;2023-08-06T13:45:00;2.80;;;2.70;;
27303;SDS011;14791;52.392;13.092;2023-08-06T13:47:30;2.98;;;2.87;;
27303;SDS011;14791;52.392;13.092;2023-08-06T13:49:59;3.15;;;2.95;;
27303;SDS011;14791;52.392;13.092;2023-08-06T13:52:28;3.40;;;3.30;;
27303;SDS011;14791;52.392;13.092;2023-08-06T13:54:57;2.87;;;2.77;;
27303;SDS011;14791;52.392;13.092;2023-08-06T13:57:26;1.92;;;1.92;;
27303;SDS011;14791;52.392;13.092;2023-08-06T13:59:55;1.85;;;1.85;;
27303;SDS011;14791;52.392;13.092;2023-08-06T14:02:24;1.55;;;1.55;;
27303;SDS011;14791;52.392;13.092;2023-08-06T14:04:53;1.77;;;1.70;;
27303;SDS011;14791;52.392;13.092;2023-08-06T14:07:22;1.60;;;1.60;;
27303;SDS011;14791;52.392;13.092;2023-08-06T14:09:51;1.75;;;1.75;;
27303;SDS011;14791;52.392;13.092;2023-08-06T14:12:19;1.80;;;1.80;;
27303;SDS011;14791;52.392;13.092;2023-08-06T14:14:48;1.95;;;1.95;;
27303;SDS011;14791;52.392;13.092;2023-08-06T14:17:17;2.02;;;1.95;;
27303;SDS011;14791;52.392;13.092;2023-08-06T14:19:46;1.55;;;1.55;;
27303;SDS011;14791;52.392;13.092;2023-08-06T14:22:15;1.57;;;1.57;;
27303;SDS011;14791;52.392;13.092;2023-08-06T14:24:44;2.17;;;2.15;;
27303;SDS011;14791;52.392;13.092;2023-08-06T14:27:14;2.55;;;2.50;;
27303;SDS011;14791;52.392;13.092;2023-08-06T14:29:43;2.00;;;2.00;;
27303;SDS011;14791;52.392;13.092;2023-08-06T14:32:11;2.12;;;2.12;;
27303;SDS011;14791;52.392;13.092;2023-08-06T14:34:41;1.65;;;1.65;;
27303;SDS011;14791;52.392;13.092;2023-08-06T14:37:10;2.00;;;1.90;;
27303;SDS011;14791;52.392;13.092;2023-08-06T14:39:40;1.75;;;1.75;;
27303;SDS011;14791;52.392;13.092;2023-08-06T14:42:09;1.50;;;1.50;;
27303;SDS011;14791;52.392;13.092;2023-08-06T14:44:38;1.65;;;1.65;;
27303;SDS011;14791;52.392;13.092;2023-08-06T14:47:08;1.92;;;1.87;;
27303;SDS011;14791;52.392;13.092;2023-08-06T14:49:37;2.70;;;2.60;;
27303;SDS011;14791;52.392;13.092;2023-08-06T14:52:06;2.72;;;2.67;;